Time;durP1;ratioP1;P1;durP2;ratioP2;P2;SDS_P1;SDS_P2;PMS_P1;PMS_P2;Temp;Humidity;BMP_temperature;BMP_pressure;BME280_temperature;BME280_humidity;BME280_pressure;Samples;Min_cycle;Max_cycle;Signal;HPM_P1;HPM_P2
2022/08/26 00:01:48;;;;;;;2.10;1.90;;;27.00;79.00;;;;;;5033688;28;20433;-24
2022/08/26 00:04:14;;;;;;;2.45;1.95;;;27.00;79.00;;;;;;5033741;28;20125;-24
2022/08/26 00:06:40;;;;;;;2.13;1.90;;;27.00;79.10;;;;;;5015902;28;20543;-24
2022/08/26 00:09:06;;;;;;;3.50;2.10;;;27.00;79.10;;;;;;5033467;28;20040;-24
2022/08/26 00:11:32;;;;;;;2.25;2.00;;;27.00;79.10;;;;;;5033002;28;20017;-24
2022/08/26 00:13:58;;;;;;;2.10;1.90;;;27.00;79.10;;;;;;5033515;28;20359;-25
2022/08/26 00:16:25;;;;;;;2.13;1.90;;;27.00;79.20;;;;;;5033417;28;20028;-24
2022/08/26 00:18:52;;;;;;;2.90;2.10;;;27.00;79.20;;;;;;5033373;28;20236;-24
2022/08/26 00:21:18;;;;;;;2.45;1.80;;;27.00;79.20;;;;;;5015794;28;20647;-24
2022/08/26 00:23:44;;;;;;;2.70;2.22;;;27.00;79.20;;;;;;5033801;28;20044;-24
2022/08/26 00:26:12;;;;;;;2.00;1.80;;;26.90;79.10;;;;;;5016037;28;20021;-24
2022/08/26 00:28:37;;;;;;;2.50;1.90;;;27.00;79.20;;;;;;5033581;28;20387;-24
2022/08/26 00:31:03;;;;;;;2.35;1.90;;;26.90;79.10;;;;;;5034233;28;20033;-24
2022/08/26 00:33:29;;;;;;;3.63;1.90;;;26.90;79.10;;;;;;5016080;28;20538;-24
2022/08/26 00:35:56;;;;;;;5.22;2.03;;;26.90;79.20;;;;;;5016088;28;20029;-24
2022/08/26 00:38:22;;;;;;;3.28;1.90;;;26.90;79.20;;;;;;5033646;28;20026;-24
2022/08/26 00:40:52;;;;;;;2.55;1.92;;;26.90;79.20;;;;;;5033785;28;20456;-24
2022/08/26 00:43:18;;;;;;;2.55;2.00;;;26.90;79.20;;;;;;5033497;28;20021;-24
2022/08/26 00:45:59;;;;;;;2.38;2.08;;;26.90;79.20;;;;;;5016832;28;20037;-24
2022/08/26 00:48:28;;;;;;;3.40;2.03;;;26.90;79.20;;;;;;5034289;28;20036;-24
2022/08/26 00:51:00;;;;;;;2.10;1.90;;;26.90;79.20;;;;;;5015720;28;20025;-24
2022/08/26 00:53:30;;;;;;;2.38;2.00;;;26.90;79.20;;;;;;5033686;28;20045;-24
2022/08/26 00:56:06;;;;;;;2.33;1.80;;;26.80;79.20;;;;;;5033574;28;20034;-24
2022/08/26 00:58:34;;;;;;;3.33;1.95;;;26.90;79.20;;;;;;5033683;28;20031;-24
2022/08/26 01:01:00;;;;;;;2.25;2.00;;;26.90;79.30;;;;;;5033434;28;20471;-24
2022/08/26 01:03:30;;;;;;;2.50;1.90;;;26.90;79.30;;;;;;5033445;28;20029;-24
2022/08/26 01:05:58;;;;;;;2.58;1.85;;;26.80;79.20;;;;;;5033329;28;20433;-25
2022/08/26 01:08:25;;;;;;;2.28;2.00;;;26.80;79.20;;;;;;5032765;28;20108;-24
2022/08/26 01:10:54;;;;;;;5.25;2.17;;;26.80;79.20;;;;;;5032641;28;20037;-25
2022/08/26 01:13:22;;;;;;;2.28;1.92;;;26.80;79.20;;;;;;5032818;28;20410;-24
2022/08/26 01:15:55;;;;;;;2.42;2.00;;;26.80;79.20;;;;;;5032737;28;20038;-24
2022/08/26 01:18:22;;;;;;;2.85;2.20;;;26.80;79.20;;;;;;5032936;28;20029;-24
2022/08/26 01:21:23;;;;;;;2.63;1.90;;;26.80;79.20;;;;;;5032357;28;20064;-24
2022/08/26 01:23:50;;;;;;;2.33;1.83;;;26.80;79.20;;;;;;5032380;28;20061;-24
2022/08/26 01:26:26;;;;;;;2.63;1.90;;;26.80;79.30;;;;;;5032678;28;20029;-24
2022/08/26 01:28:55;;;;;;;2.15;1.92;;;26.80;79.30;;;;;;5032552;28;20041;-24
2022/08/26 01:31:24;;;;;;;2.08;1.80;;;26.80;79.30;;;;;;5032544;28;20057;-24
2022/08/26 01:34:02;;;;;;;2.22;2.00;;;26.80;79.30;;;;;;5032496;28;20037;-24
2022/08/26 01:36:28;;;;;;;2.50;2.00;;;26.80;79.40;;;;;;5033289;28;20021;-24
2022/08/26 01:38:54;;;;;;;2.30;2.10;;;26.80;79.30;;;;;;5032891;28;20482;-24
2022/08/26 01:41:21;;;;;;;3.40;2.00;;;26.80;79.30;;;;;;5034692;28;20025;-24
2022/08/26 01:43:52;;;;;;;3.38;2.22;;;26.70;79.30;;;;;;5034992;28;20544;-24
2022/08/26 01:46:21;;;;;;;1.92;1.73;;;26.70;79.20;;;;;;5017183;28;20064;-24
2022/08/26 01:48:49;;;;;;;3.45;1.90;;;26.70;79.30;;;;;;5015935;28;20025;-24
2022/08/26 01:51:17;;;;;;;3.40;2.20;;;26.70;79.30;;;;;;5033507;28;20186;-24
2022/08/26 01:53:43;;;;;;;2.30;2.10;;;26.70;79.30;;;;;;5033384;28;20394;-24
2022/08/26 01:56:10;;;;;;;2.88;1.80;;;26.70;79.30;;;;;;5033132;28;20021;-25
2022/08/26 01:58:49;;;;;;;2.72;2.08;;;26.70;79.30;;;;;;5032512;28;20033;-25
2022/08/26 02:01:17;;;;;;;2.30;2.03;;;26.70;79.30;;;;;;5032634;28;20029;-24
2022/08/26 02:03:54;;;;;;;2.53;2.20;;;26.70;79.30;;;;;;5032284;28;20033;-24
2022/08/26 02:06:20;;;;;;;2.47;1.88;;;26.70;79.30;;;;;;5032527;28;20029;-25
2022/08/26 02:08:50;;;;;;;3.83;2.00;;;26.60;79.20;;;;;;5032273;28;20021;-24
2022/08/26 02:11:17;;;;;;;2.78;2.35;;;26.70;79.30;;;;;;5032296;28;20025;-24
2022/08/26 02:13:47;;;;;;;2.00;1.77;;;26.70;79.30;;;;;;5032494;28;20474;-24
2022/08/26 02:16:16;;;;;;;2.15;1.80;;;26.60;80.00;;;;;;5032477;28;20017;-25
2022/08/26 02:18:43;;;;;;;2.22;2.03;;;26.70;79.30;;;;;;5032190;28;20064;-24
2022/08/26 02:21:11;;;;;;;2.30;2.10;;;26.70;79.30;;;;;;5032325;28;20025;-24
2022/08/26 02:23:37;;;;;;;2.35;1.90;;;26.70;79.40;;;;;;5014763;28;20445;-24
2022/08/26 02:26:12;;;;;;;1.90;1.80;;;26.60;79.30;;;;;;5032434;28;20049;-24
2022/08/26 02:29:03;;;;;;;2.25;2.00;;;26.60;79.30;;;;;;5032011;28;20030;-24
2022/08/26 02:31:29;;;;;;;2.22;1.90;;;26.60;79.30;;;;;;5031498;28;20469;-24
2022/08/26 02:33:55;;;;;;;2.38;2.08;;;26.60;79.30;;;;;;5034105;28;20068;-25
2022/08/26 02:36:24;;;;;;;2.70;2.30;;;26.60;79.30;;;;;;5036174;28;20025;-24
2022/08/26 02:38:49;;;;;;;2.13;1.92;;;26.60;79.30;;;;;;5036084;28;20021;-24
2022/08/26 02:41:15;;;;;;;2.33;1.83;;;26.60;79.30;;;;;;5036044;28;20414;-25
2022/08/26 02:43:41;;;;;;;2.25;1.77;;;26.60;79.40;;;;;;5036113;28;20036;-25
2022/08/26 02:46:07;;;;;;;2.42;2.10;;;26.60;79.30;;;;;;5036109;28;20026;-25
2022/08/26 02:48:32;;;;;;;4.25;2.00;;;26.60;79.30;;;;;;5035527;28;20132;-24
2022/08/26 02:51:00;;;;;;;3.25;1.98;;;26.60;79.30;;;;;;5036368;28;20018;-24
2022/08/26 02:53:26;;;;;;;2.20;1.90;;;26.60;79.30;;;;;;5035919;28;20024;-24
2022/08/26 02:55:52;;;;;;;2.13;1.92;;;26.60;79.40;;;;;;5036059;28;20156;-24
2022/08/26 02:58:19;;;;;;;4.00;1.75;;;26.60;79.30;;;;;;5035651;28;20045;-24
2022/08/26 03:00:46;;;;;;;2.80;1.92;;;26.60;79.30;;;;;;5035836;28;20394;-24
2022/08/26 03:03:13;;;;;;;2.15;1.95;;;26.50;79.30;;;;;;5036070;28;20034;-24
2022/08/26 03:05:39;;;;;;;3.33;1.98;;;26.60;79.40;;;;;;5035973;28;20044;-25
2022/08/26 03:08:04;;;;;;;3.60;1.80;;;26.50;79.30;;;;;;5035396;28;20034;-24
2022/08/26 03:10:30;;;;;;;2.55;2.10;;;26.60;79.40;;;;;;5035153;28;20017;-24
2022/08/26 03:12:58;;;;;;;2.60;2.00;;;26.50;79.30;;;;;;5035191;28;20645;-25
2022/08/26 03:15:24;;;;;;;2.28;1.88;;;26.50;79.30;;;;;;5035345;28;20021;-24
2022/08/26 03:17:50;;;;;;;2.67;2.13;;;26.50;79.30;;;;;;5035573;28;20021;-25
2022/08/26 03:20:16;;;;;;;3.88;1.90;;;26.50;79.30;;;;;;5035171;28;20036;-24
2022/08/26 03:22:42;;;;;;;2.38;2.00;;;26.50;79.40;;;;;;5035528;28;20025;-24
2022/08/26 03:25:10;;;;;;;2.30;2.10;;;26.50;79.40;;;;;;5035551;28;20086;-24
2022/08/26 03:27:36;;;;;;;1.90;1.80;;;26.50;79.40;;;;;;5035533;28;20028;-24
2022/08/26 03:32:47;;;;;;;2.35;1.92;;;26.50;79.40;;;;;;5035237;28;20036;-24
2022/08/26 03:35:12;;;;;;;3.13;2.22;;;26.40;79.40;;;;;;5035485;28;20383;-24
2022/08/26 03:37:38;;;;;;;2.58;2.03;;;26.50;79.40;;;;;;5035125;28;20029;-24
2022/08/26 03:40:07;;;;;;;2.08;1.80;;;26.50;79.50;;;;;;5035054;28;20173;-24
2022/08/26 03:42:35;;;;;;;2.20;2.00;;;26.50;79.50;;;;;;5034970;28;20048;-24
2022/08/26 03:45:02;;;;;;;2.80;2.25;;;26.50;79.50;;;;;;5016640;28;20057;-24
2022/08/26 03:47:27;;;;;;;2.22;2.03;;;26.40;79.40;;;;;;5035315;28;20025;-24
2022/08/26 03:49:53;;;;;;;2.53;2.05;;;26.40;79.40;;;;;;5034669;28;20021;-24
2022/08/26 03:52:19;;;;;;;2.30;1.98;;;26.40;79.40;;;;;;5034675;28;20032;-24
2022/08/26 03:54:44;;;;;;;2.65;1.88;;;26.40;79.50;;;;;;5034843;28;20026;-24
2022/08/26 03:57:10;;;;;;;2.38;2.08;;;26.40;79.50;;;;;;5034529;28;20081;-24
2022/08/26 03:59:36;;;;;;;3.08;2.20;;;26.40;79.50;;;;;;5034294;28;20041;-24
2022/08/26 04:02:02;;;;;;;3.17;2.10;;;26.40;79.50;;;;;;5034492;28;20079;-24
2022/08/26 04:04:27;;;;;;;3.45;2.00;;;26.40;79.50;;;;;;5034421;28;20028;-25
2022/08/26 04:06:58;;;;;;;2.25;2.00;;;26.40;79.50;;;;;;5034888;28;20017;-24
2022/08/26 04:09:25;;;;;;;2.00;1.90;;;26.40;79.50;;;;;;5034521;28;20029;-24
2022/08/26 04:11:51;;;;;;;2.00;1.65;;;26.40;79.50;;;;;;5016639;28;20030;-24
2022/08/26 04:14:21;;;;;;;2.20;1.98;;;26.40;79.50;;;;;;5035094;28;20394;-24
2022/08/26 04:16:47;;;;;;;2.60;2.40;;;26.40;79.50;;;;;;5035744;28;20029;-24
2022/08/26 04:19:14;;;;;;;2.35;2.10;;;26.40;79.50;;;;;;5034841;28;20055;-24
2022/08/26 04:21:40;;;;;;;2.50;2.30;;;26.40;79.60;;;;;;5034175;28;20029;-24
2022/08/26 04:24:07;;;;;;;2.00;1.88;;;26.40;79.60;;;;;;5033982;28;20104;-24
2022/08/26 04:26:36;;;;;;;2.78;2.17;;;26.30;79.50;;;;;;5034165;28;20057;-24
2022/08/26 04:29:04;;;;;;;2.00;1.80;;;26.30;79.50;;;;;;5034207;28;20049;-24
2022/08/26 04:31:33;;;;;;;2.90;2.00;;;26.30;79.50;;;;;;5033868;28;20026;-24
2022/08/26 04:33:59;;;;;;;2.70;2.00;;;26.30;79.60;;;;;;5033898;28;20037;-24
2022/08/26 04:36:24;;;;;;;2.35;1.85;;;26.30;79.50;;;;;;5034160;28;20030;-24
2022/08/26 04:38:51;;;;;;;3.25;2.20;;;26.30;79.60;;;;;;5033850;28;20029;-24
2022/08/26 04:41:18;;;;;;;2.63;1.92;;;26.30;79.60;;;;;;5033709;28;20513;-24
2022/08/26 04:43:45;;;;;;;2.65;2.08;;;26.30;79.60;;;;;;5034066;28;20025;-24
2022/08/26 04:46:14;;;;;;;2.88;2.00;;;26.30;79.60;;;;;;5033770;28;20425;-24
2022/08/26 04:48:39;;;;;;;2.47;2.05;;;26.30;79.60;;;;;;5015665;28;20026;-24
2022/08/26 04:51:05;;;;;;;2.20;2.00;;;26.30;79.60;;;;;;5033435;28;20028;-25
2022/08/26 04:53:31;;;;;;;2.90;1.90;;;26.30;79.70;;;;;;5033124;28;20092;-24
2022/08/26 04:55:57;;;;;;;2.42;1.90;;;26.30;79.70;;;;;;5032758;28;20057;-24
2022/08/26 04:58:24;;;;;;;2.78;2.17;;;26.30;79.70;;;;;;5033029;28;20025;-24
2022/08/26 05:00:52;;;;;;;2.65;1.85;;;26.20;79.60;;;;;;5032841;28;20034;-24
2022/08/26 05:03:18;;;;;;;2.40;2.08;;;26.20;79.60;;;;;;5033160;28;20029;-24
2022/08/26 05:05:46;;;;;;;3.75;2.10;;;26.20;79.70;;;;;;5032698;28;20095;-25
2022/08/26 05:08:14;;;;;;;2.38;2.15;;;26.20;79.70;;;;;;5032711;28;20029;-24
2022/08/26 05:10:47;;;;;;;3.20;2.10;;;26.20;79.70;;;;;;5032621;28;20045;-24
2022/08/26 05:13:15;;;;;;;2.50;2.20;;;26.20;79.80;;;;;;5032669;28;20485;-24
2022/08/26 05:15:41;;;;;;;2.88;2.20;;;26.20;79.90;;;;;;5032559;28;20500;-24
2022/08/26 05:18:07;;;;;;;3.92;2.28;;;26.20;79.80;;;;;;5032507;28;20505;-24
2022/08/26 05:20:43;;;;;;;2.42;2.20;;;26.20;79.80;;;;;;5032365;28;20482;-24
2022/08/26 05:23:09;;;;;;;2.75;2.10;;;26.20;79.90;;;;;;5032299;28;20032;-24
2022/08/26 05:25:44;;;;;;;2.53;2.20;;;26.10;79.90;;;;;;5032326;28;20378;-24
2022/08/26 05:28:13;;;;;;;2.28;2.08;;;26.10;79.90;;;;;;5032625;28;20044;-24
2022/08/26 05:30:39;;;;;;;2.38;1.63;;;26.10;79.80;;;;;;5032023;28;20018;-24
2022/08/26 05:33:06;;;;;;;2.10;1.90;;;26.10;79.90;;;;;;5032460;28;20029;-24
2022/08/26 05:35:33;;;;;;;3.25;2.10;;;26.10;79.90;;;;;;5032211;28;20466;-24
2022/08/26 05:38:03;;;;;;;2.53;1.90;;;26.10;79.90;;;;;;5032162;28;20497;-24
2022/08/26 05:40:34;;;;;;;2.20;2.00;;;26.10;79.90;;;;;;5031950;28;20032;-24
2022/08/26 05:42:59;;;;;;;2.40;2.15;;;26.10;79.90;;;;;;5032156;28;20116;-24
2022/08/26 05:45:26;;;;;;;2.85;2.17;;;26.10;79.90;;;;;;5031979;28;20093;-24
2022/08/26 05:47:52;;;;;;;2.53;2.10;;;26.10;79.90;;;;;;5032019;28;20036;-24
2022/08/26 05:50:22;;;;;;;1.98;1.88;;;26.10;79.90;;;;;;5031890;28;20400;-24
2022/08/26 05:52:48;;;;;;;2.25;2.05;;;26.00;79.90;;;;;;5032181;28;20025;-24
2022/08/26 05:55:14;;;;;;;3.05;2.05;;;26.10;80.00;;;;;;5031939;28;20021;-24
2022/08/26 05:57:40;;;;;;;2.25;2.10;;;26.10;80.00;;;;;;5031907;28;20029;-24
2022/08/26 06:00:06;;;;;;;2.53;2.05;;;26.10;80.00;;;;;;5031596;28;20030;-24
2022/08/26 06:02:32;;;;;;;2.40;2.20;;;26.10;80.00;;;;;;5031828;28;20056;-24
2022/08/26 06:04:58;;;;;;;2.20;2.00;;;26.10;80.00;;;;;;5031860;28;20418;-24
2022/08/26 06:08:09;;;;;;;2.25;2.05;;;26.00;79.90;;;;;;5031830;28;20490;-24
2022/08/26 06:10:13;;;;;;;2.20;1.95;;;26.10;80.00;;;;;;5035573;28;20116;-24
2022/08/26 06:12:39;;;;;;;2.13;1.92;;;26.10;80.00;;;;;;5036086;28;20425;-24
2022/08/26 06:15:06;;;;;;;2.92;1.98;;;26.00;80.00;;;;;;5036103;28;20056;-24
2022/08/26 06:17:31;;;;;;;2.38;1.95;;;26.10;80.10;;;;;;5035940;28;20502;-24
2022/08/26 06:19:57;;;;;;;2.30;2.08;;;26.10;80.10;;;;;;5035584;28;20032;-24
2022/08/26 06:27:52;;;;;;;;;;;26.10;80.10;;;;;;5036733;28;20087;-24
2022/08/26 06:30:18;;;;;;;2.40;2.20;;;26.10;80.20;;;;;;5035639;28;20320;-24
2022/08/26 06:32:44;;;;;;;2.30;2.10;;;26.10;80.20;;;;;;5035405;28;20050;-24
2022/08/26 06:35:10;;;;;;;2.50;2.25;;;26.10;80.20;;;;;;5035666;28;20021;-24
2022/08/26 06:37:36;;;;;;;5.20;2.13;;;26.10;80.20;;;;;;5035423;28;20018;-24
2022/08/26 06:40:03;;;;;;;2.33;2.00;;;26.10;80.20;;;;;;5035250;28;20036;-24
2022/08/26 06:42:29;;;;;;;2.13;1.90;;;26.10;80.20;;;;;;5035360;28;20030;-24
2022/08/26 06:44:54;;;;;;;2.72;2.05;;;26.10;81.00;;;;;;5035370;28;20502;-24
2022/08/26 06:47:20;;;;;;;2.65;2.10;;;26.10;80.20;;;;;;5035428;28;20045;-24
2022/08/26 06:49:46;;;;;;;2.72;2.20;;;26.10;80.20;;;;;;5035150;28;20060;-24
2022/08/26 06:52:12;;;;;;;4.13;1.85;;;26.10;80.20;;;;;;5034965;28;20029;-24
2022/08/26 06:54:40;;;;;;;2.90;2.30;;;26.10;80.20;;;;;;5035150;28;20486;-24
2022/08/26 06:57:06;;;;;;;2.47;2.13;;;26.10;80.20;;;;;;5035040;28;20376;-24
2022/08/26 06:59:31;;;;;;;2.20;1.90;;;26.10;80.20;;;;;;5034973;28;20040;-24
2022/08/26 07:01:57;;;;;;;2.15;1.83;;;26.10;80.20;;;;;;5035012;28;20025;-24
2022/08/26 07:04:23;;;;;;;2.80;2.00;;;26.10;80.20;;;;;;5034927;28;20355;-24
2022/08/26 07:06:51;;;;;;;2.20;2.00;;;26.10;80.20;;;;;;5034985;28;20486;-24
2022/08/26 07:09:17;;;;;;;2.70;2.10;;;26.20;80.30;;;;;;5034844;28;20022;-24
2022/08/26 07:11:43;;;;;;;2.10;1.92;;;26.10;80.20;;;;;;5035175;28;20026;-24
2022/08/26 07:14:09;;;;;;;2.60;1.80;;;26.10;80.30;;;;;;5034801;28;20036;-24
2022/08/26 07:16:35;;;;;;;2.00;1.80;;;26.10;80.40;;;;;;5034884;28;20021;-24
2022/08/26 07:19:01;;;;;;;2.50;1.80;;;26.10;80.40;;;;;;5034493;28;20021;-24
2022/08/26 07:21:27;;;;;;;2.97;1.90;;;26.10;80.40;;;;;;5034754;28;20117;-24
2022/08/26 07:23:53;;;;;;;3.28;1.98;;;26.10;80.50;;;;;;5034704;28;20097;-24
2022/08/26 07:26:23;;;;;;;1.98;1.70;;;26.10;80.50;;;;;;5034615;28;20029;-24
2022/08/26 07:28:51;;;;;;;2.15;1.85;;;26.20;80.60;;;;;;5034367;28;20100;-24
2022/08/26 07:31:18;;;;;;;2.15;1.92;;;26.10;80.50;;;;;;5034405;28;20029;-24
2022/08/26 07:33:45;;;;;;;2.47;1.90;;;26.20;80.60;;;;;;5034315;28;20040;-24
2022/08/26 07:36:12;;;;;;;2.05;1.77;;;26.20;80.50;;;;;;5034478;28;20030;-24
2022/08/26 07:38:39;;;;;;;3.10;1.83;;;26.20;80.60;;;;;;5034424;28;20466;-24
2022/08/26 07:41:06;;;;;;;2.10;1.80;;;26.20;80.60;;;;;;5016587;28;20021;-24
2022/08/26 07:43:34;;;;;;;2.28;1.80;;;26.20;80.60;;;;;;5034418;28;20435;-24
2022/08/26 07:46:00;;;;;;;2.53;2.13;;;26.10;80.50;;;;;;5034453;28;20026;-24
2022/08/26 07:48:25;;;;;;;2.58;1.98;;;26.20;80.60;;;;;;5033947;28;20055;-24
2022/08/26 07:50:52;;;;;;;2.83;1.90;;;26.20;80.50;;;;;;5016297;28;20575;-24
2022/08/26 07:53:19;;;;;;;1.95;1.70;;;26.30;80.40;;;;;;5034232;28;20022;-24
2022/08/26 07:55:45;;;;;;;2.28;1.95;;;26.30;80.40;;;;;;5033986;28;20502;-24
2022/08/26 07:58:11;;;;;;;1.90;1.70;;;26.30;80.30;;;;;;5033949;28;20052;-24
2022/08/26 08:00:37;;;;;;;3.65;1.88;;;26.30;80.20;;;;;;5033816;28;20099;-24
2022/08/26 08:03:04;;;;;;;2.15;1.95;;;26.30;80.20;;;;;;5033802;28;20018;-24
2022/08/26 08:05:31;;;;;;;2.10;1.75;;;26.30;80.20;;;;;;5033857;28;20446;-24
2022/08/26 08:08:02;;;;;;;2.45;2.00;;;26.30;80.20;;;;;;5033979;28;20021;-24
2022/08/26 08:10:30;;;;;;;2.65;1.88;;;26.40;80.20;;;;;;5033634;28;20022;-24
2022/08/26 08:12:56;;;;;;;3.80;2.30;;;26.40;80.50;;;;;;5033692;28;20490;-24
2022/08/26 08:15:26;;;;;;;2.65;2.20;;;26.40;81.10;;;;;;5033711;28;20052;-24
2022/08/26 08:17:52;;;;;;;4.35;2.55;;;26.30;81.50;;;;;;5033818;28;20084;-24
2022/08/26 08:20:19;;;;;;;3.00;2.30;;;26.40;81.70;;;;;;5033533;28;20117;-24
2022/08/26 08:22:45;;;;;;;5.63;2.40;;;26.40;81.80;;;;;;5015717;28;20029;-24
2022/08/26 08:25:12;;;;;;;5.35;2.60;;;26.40;81.70;;;;;;5033555;28;20504;-24
2022/08/26 08:27:39;;;;;;;2.90;2.17;;;26.40;81.50;;;;;;5033527;28;20060;-24
2022/08/26 08:30:06;;;;;;;4.45;2.47;;;26.40;82.30;;;;;;5032937;28;20079;-24
2022/08/26 08:32:34;;;;;;;8.15;2.38;;;26.40;81.50;;;;;;5032657;28;20030;-24
2022/08/26 08:35:01;;;;;;;4.53;2.10;;;26.40;81.40;;;;;;5033393;28;20048;-24
2022/08/26 08:37:27;;;;;;;3.95;2.30;;;26.40;81.40;;;;;;5033558;28;20032;-24
2022/08/26 08:39:52;;;;;;;3.17;2.20;;;26.40;82.10;;;;;;5033290;28;20026;-24
2022/08/26 08:42:47;;;;;;;4.07;2.22;;;26.40;81.20;;;;;;5033061;28;20040;-24
2022/08/26 08:45:19;;;;;;;3.33;2.00;;;26.40;81.10;;;;;;5033191;28;20220;-24
2022/08/26 08:47:55;;;;;;;2.53;2.00;;;26.50;81.20;;;;;;5033142;28;20398;-24
2022/08/26 08:50:27;;;;;;;3.28;2.05;;;26.50;81.00;;;;;;5032861;28;20033;-24
2022/08/26 08:53:10;;;;;;;3.53;2.30;;;26.50;81.00;;;;;;5032845;28;20589;-24
2022/08/26 08:55:57;;;;;;;2.95;1.90;;;26.60;80.90;;;;;;5033072;28;20121;-24
2022/08/26 08:58:46;;;;;;;3.40;2.00;;;26.60;80.90;;;;;;5032864;28;20126;-24
2022/08/26 09:01:24;;;;;;;5.07;1.90;;;26.70;80.90;;;;;;4995474;28;20033;-24
2022/08/26 09:04:18;;;;;;;3.53;2.00;;;26.70;80.80;;;;;;5032841;28;20032;-24
2022/08/26 09:06:46;;;;;;;1.98;1.80;;;26.70;80.80;;;;;;5022014;28;20057;-24
2022/08/26 09:09:24;;;;;;;3.40;1.98;;;26.70;80.70;;;;;;5032487;28;20029;-24
2022/08/26 09:11:51;;;;;;;3.33;2.20;;;26.70;80.60;;;;;;5032617;28;20108;-24
2022/08/26 09:14:16;;;;;;;3.50;2.10;;;26.70;80.50;;;;;;5032490;28;20036;-24
2022/08/26 09:17:06;;;;;;;2.53;2.10;;;26.80;80.60;;;;;;5032672;28;20026;-24
2022/08/26 09:19:32;;;;;;;2.72;2.30;;;26.80;80.60;;;;;;5032481;28;20498;-24
2022/08/26 09:22:00;;;;;;;3.83;1.85;;;26.80;80.50;;;;;;5032440;28;20025;-24
2022/08/26 09:24:29;;;;;;;4.68;2.20;;;26.80;80.50;;;;;;5032417;28;20072;-24
2022/08/26 09:26:57;;;;;;;3.55;2.13;;;26.80;80.50;;;;;;5032404;28;20071;-24
2022/08/26 09:29:26;;;;;;;4.95;1.98;;;26.80;80.40;;;;;;5032188;28;20097;-24
2022/08/26 09:32:25;;;;;;;2.83;2.20;;;26.80;80.40;;;;;;5014571;28;20036;-24
2022/08/26 09:34:59;;;;;;;2.15;1.95;;;26.90;80.50;;;;;;5032499;28;20110;-24
2022/08/26 09:37:47;;;;;;;3.22;1.83;;;26.90;80.40;;;;;;5032317;28;20021;-24
2022/08/26 09:40:19;;;;;;;2.90;2.00;;;27.00;80.50;;;;;;5032011;28;20503;-24
2022/08/26 09:42:45;;;;;;;3.78;2.22;;;26.90;80.30;;;;;;5031219;28;20494;-24
2022/08/26 09:45:11;;;;;;;4.10;2.00;;;27.00;80.40;;;;;;5032089;28;20044;-24
2022/08/26 09:47:52;;;;;;;3.25;1.80;;;27.00;80.30;;;;;;5032149;28;20067;-24
2022/08/26 09:50:28;;;;;;;3.08;2.05;;;27.00;80.30;;;;;;5031897;28;20490;-24
2022/08/26 09:53:39;;;;;;;3.13;2.13;;;27.00;80.30;;;;;;5014175;28;20018;-24
2022/08/26 09:56:27;;;;;;;5.90;2.30;;;27.00;80.40;;;;;;5027979;28;20069;-24
2022/08/26 09:58:54;;;;;;;2.10;1.90;;;27.00;80.40;;;;;;5032053;28;20056;-24
2022/08/26 10:01:22;;;;;;;3.45;2.28;;;27.00;80.40;;;;;;5031970;28;20060;-24
2022/08/26 10:03:50;;;;;;;6.47;2.30;;;26.90;80.30;;;;;;5031810;28;20031;-24
2022/08/26 10:06:15;;;;;;;6.47;2.13;;;27.00;80.40;;;;;;5014110;28;20447;-24
2022/08/26 10:08:46;;;;;;;3.17;1.95;;;27.00;80.50;;;;;;5031625;28;20108;-24
2022/08/26 10:11:21;;;;;;;2.95;1.95;;;26.90;80.40;;;;;;5031813;28;20060;-24
2022/08/26 10:13:54;;;;;;;3.97;2.35;;;27.00;80.50;;;;;;5031656;28;20097;-24
2022/08/26 10:16:28;;;;;;;4.20;2.30;;;26.90;80.50;;;;;;5031681;28;20026;-24
2022/08/26 10:19:17;;;;;;;3.67;2.13;;;27.00;80.50;;;;;;5031852;28;20045;-24
2022/08/26 10:22:04;;;;;;;5.03;2.05;;;26.90;80.40;;;;;;5031735;28;20025;-24
2022/08/26 10:24:47;;;;;;;3.08;2.10;;;27.00;80.40;;;;;;5031547;28;20029;-24
2022/08/26 10:27:38;;;;;;;5.72;2.00;;;27.00;80.30;;;;;;5031661;28;20027;-24
2022/08/26 10:30:09;;;;;;;3.80;2.10;;;27.10;80.30;;;;;;5031390;28;20028;-24
2022/08/26 10:32:46;;;;;;;3.85;2.30;;;27.10;80.20;;;;;;5031489;28;20064;-24
2022/08/26 10:35:14;;;;;;;3.08;2.00;;;27.10;80.10;;;;;;5031622;28;20056;-24
2022/08/26 10:37:49;;;;;;;5.15;2.17;;;27.20;80.00;;;;;;5031682;28;20030;-24
2022/08/26 10:40:23;;;;;;;4.82;2.20;;;27.20;79.90;;;;;;5031347;28;20052;-24
2022/08/26 10:42:52;;;;;;;;;;;27.30;80.00;;;;;;5032006;28;20028;-24
2022/08/26 10:45:27;;;;;;;3.25;2.17;;;27.30;79.90;;;;;;5031577;28;19905;-24
2022/08/26 10:48:01;;;;;;;4.25;2.10;;;27.30;79.80;;;;;;5031528;28;20026;-24
2022/08/26 10:50:33;;;;;;;3.63;2.25;;;27.30;80.50;;;;;;5031231;28;20021;-24
2022/08/26 10:53:29;;;;;;;4.72;2.53;;;27.40;79.70;;;;;;5031522;28;20495;-24
2022/08/26 10:56:06;;;;;;;4.78;2.47;;;27.30;79.60;;;;;;5017135;28;20030;-24
2022/08/26 10:58:51;;;;;;;3.22;2.03;;;27.40;79.60;;;;;;5035032;28;20026;-24
2022/08/26 11:04:13;;;;;;;3.00;2.15;;;27.40;79.60;;;;;;5034957;28;19931;-24
2022/08/26 11:06:39;;;;;;;2.97;2.15;;;27.30;79.70;;;;;;5035117;28;20034;-24
2022/08/26 11:09:07;;;;;;;2.47;1.98;;;27.30;79.90;;;;;;5035087;28;20120;-24
2022/08/26 11:11:39;;;;;;;4.47;2.28;;;27.20;79.90;;;;;;5035725;28;20567;-24
2022/08/26 11:14:06;;;;;;;4.22;2.20;;;27.20;79.90;;;;;;5035817;28;20036;-24
2022/08/26 11:16:41;;;;;;;3.70;2.30;;;27.20;80.00;;;;;;5035443;28;20021;-24
2022/08/26 11:19:09;;;;;;;3.35;2.20;;;27.10;80.00;;;;;;5034808;28;20026;-24
2022/08/26 11:21:48;;;;;;;2.95;2.00;;;27.10;80.10;;;;;;5017019;28;20033;-24
2022/08/26 11:24:41;;;;;;;3.85;2.17;;;27.10;80.20;;;;;;5034675;28;20022;-24
2022/08/26 11:27:09;;;;;;;4.95;2.30;;;27.10;80.30;;;;;;5034688;28;20033;-24
2022/08/26 11:30:04;;;;;;;3.90;2.10;;;27.10;80.30;;;;;;5034557;28;20047;-24
2022/08/26 11:32:33;;;;;;;3.47;2.10;;;27.10;80.30;;;;;;5034664;28;20101;-24
2022/08/26 11:35:03;;;;;;;2.90;2.10;;;27.10;80.30;;;;;;5065565;22;20045;-26
2022/08/26 11:37:36;;;;;;;3.60;2.20;;;27.10;80.30;;;;;;5054336;28;20017;-26
2022/08/26 11:40:07;;;;;;;4.07;2.25;;;27.10;80.30;;;;;;5054341;28;20083;-26
2022/08/26 11:42:49;;;;;;;4.75;2.00;;;27.10;80.30;;;;;;5054329;28;20029;-26
2022/08/26 11:45:23;;;;;;;4.10;2.30;;;27.10;80.30;;;;;;5034877;28;20032;-26
2022/08/26 11:47:49;;;;;;;5.50;2.40;;;27.10;80.40;;;;;;5034096;28;20382;-27
2022/08/26 11:50:20;;;;;;;3.63;1.98;;;27.10;80.50;;;;;;5033908;28;20033;-26
2022/08/26 11:53:03;;;;;;;2.50;2.13;;;27.10;80.40;;;;;;5034236;28;20037;-26
2022/08/26 11:55:30;;;;;;;3.60;2.15;;;27.00;80.50;;;;;;5034153;28;20152;-26
2022/08/26 11:57:59;;;;;;;4.22;2.60;;;27.00;80.60;;;;;;5034046;28;20032;-26
2022/08/26 12:00:49;;;;;;;2.75;1.95;;;26.90;80.70;;;;;;5033713;28;20029;-26
2022/08/26 12:03:21;;;;;;;2.80;2.17;;;26.90;80.70;;;;;;5033918;28;20033;-26
2022/08/26 12:05:50;;;;;;;3.10;2.13;;;26.90;80.80;;;;;;5033053;28;20071;-26
2022/08/26 12:08:20;;;;;;;4.88;2.40;;;26.80;80.90;;;;;;5033746;28;20021;-26
2022/08/26 12:10:47;;;;;;;3.15;2.10;;;26.80;80.90;;;;;;5033854;28;20494;-27
2022/08/26 12:13:25;;;;;;;3.17;2.30;;;26.80;81.00;;;;;;5033773;28;20025;-27
2022/08/26 12:15:56;;;;;;;4.32;2.00;;;26.80;81.00;;;;;;5033997;28;20017;-26
2022/08/26 12:18:25;;;;;;;4.80;2.22;;;26.80;81.10;;;;;;5033995;28;20023;-27
2022/08/26 12:20:55;;;;;;;4.05;2.20;;;26.70;81.10;;;;;;5033934;28;20108;-24
2022/08/26 12:23:35;;;;;;;3.90;2.30;;;26.80;81.20;;;;;;5033970;28;20029;-25
2022/08/26 12:26:03;;;;;;;4.28;2.40;;;26.80;81.30;;;;;;5034010;28;20063;-25
2022/08/26 12:28:29;;;;;;;3.72;2.30;;;26.70;81.30;;;;;;5033331;28;20032;-25
2022/08/26 12:31:05;;;;;;;2.67;1.83;;;26.70;81.30;;;;;;5033300;28;20383;-25
2022/08/26 12:33:35;;;;;;;5.82;2.47;;;26.70;81.50;;;;;;5033110;28;20026;-26
2022/08/26 12:36:02;;;;;;;3.65;2.33;;;26.70;81.50;;;;;;5033255;28;20487;-26
2022/08/26 12:38:28;;;;;;;5.53;2.35;;;26.70;81.50;;;;;;5033371;28;20022;-26
2022/08/26 12:40:55;;;;;;;3.58;2.35;;;26.70;81.70;;;;;;5033143;28;20556;-26
2022/08/26 12:43:44;;;;;;;3.72;2.25;;;26.70;81.60;;;;;;5033177;28;20025;-25
2022/08/26 12:46:16;;;;;;;4.53;2.40;;;26.70;81.60;;;;;;5032969;28;20025;-26
2022/08/26 12:48:46;;;;;;;4.07;2.78;;;26.70;81.60;;;;;;5032975;28;20097;-26
2022/08/26 12:51:31;;;;;;;3.63;2.40;;;26.70;81.70;;;;;;5033282;28;20056;-26
2022/08/26 12:53:57;;;;;;;3.67;2.20;;;26.70;81.70;;;;;;5032964;28;20041;-26
2022/08/26 12:56:37;;;;;;;3.33;2.70;;;26.70;81.80;;;;;;5032835;28;20028;-25
2022/08/26 12:59:24;;;;;;;4.53;2.40;;;26.70;81.80;;;;;;5032844;28;20022;-25
2022/08/26 13:01:50;;;;;;;2.95;2.30;;;26.70;81.80;;;;;;5032642;28;20056;-26
2022/08/26 13:04:39;;;;;;;2.83;2.33;;;26.70;81.90;;;;;;5032746;28;20079;-26
2022/08/26 13:07:23;;;;;;;4.50;2.40;;;26.70;81.80;;;;;;5032800;28;20026;-26
2022/08/26 13:09:56;;;;;;;2.97;2.13;;;26.70;81.90;;;;;;5032576;28;20056;-26
2022/08/26 13:12:36;;;;;;;3.55;2.28;;;26.60;81.90;;;;;;5032746;28;20052;-26
2022/08/26 13:15:04;;;;;;;3.45;2.60;;;26.60;82.00;;;;;;5032544;28;20096;-26